sensor_id;sensor_type;location;lat;lon;timestamp;pressure;altitude;pressure_sealevel;temperature;humidity
12626;BME280;6378;42.684;23.372;2022-10-16T00:00:56;95732.13;;;10.85;100.00
12626;BME280;6378;42.684;23.372;2022-10-16T00:03:22;95737.72;;;10.80;100.00
12626;BME280;6378;42.684;23.372;2022-10-16T00:05:47;95739.97;;;10.78;100.00
12626;BME280;6378;42.684;23.372;2022-10-16T00:08:13;95739.38;;;10.73;100.00
12626;BME280;6378;42.684;23.372;2022-10-16T00:10:39;95731.81;;;10.66;100.00
12626;BME280;6378;42.684;23.372;2022-10-16T00:13:05;95743.25;;;10.63;100.00
12626;BME280;6378;42.684;23.372;2022-10-16T00:15:33;95741.06;;;10.57;100.00
12626;BME280;6378;42.684;23.372;2022-10-16T00:18:01;95751.03;;;10.56;100.00
12626;BME280;6378;42.684;23.372;2022-10-16T00:20:27;95752.38;;;10.50;100.00
12626;BME280;6378;42.684;23.372;2022-10-16T00:22:52;95732.47;;;10.42;100.00
12626;BME280;6378;42.684;23.372;2022-10-16T00:25:18;95744.44;;;10.54;100.00
12626;BME280;6378;42.684;23.372;2022-10-16T00:27:44;95755.63;;;10.56;100.00
12626;BME280;6378;42.684;23.372;2022-10-16T00:30:09;95756.63;;;10.51;100.00
12626;BME280;6378;42.684;23.372;2022-10-16T00:32:35;95732.53;;;10.34;100.00
12626;BME280;6378;42.684;23.372;2022-10-16T00:35:00;95748.91;;;10.50;100.00
12626;BME280;6378;42.684;23.372;2022-10-16T00:37:25;95772.06;;;10.63;100.00
12626;BME280;6378;42.684;23.372;2022-10-16T00:39:51;95746.38;;;10.45;100.00
12626;BME280;6378;42.684;23.372;2022-10-16T00:42:18;95765.16;;;10.53;100.00
12626;BME280;6378;42.684;23.372;2022-10-16T00:49:47;95763.34;;;10.45;100.00
12626;BME280;6378;42.684;23.372;2022-10-16T00:52:14;95755.25;;;10.45;100.00
12626;BME280;6378;42.684;23.372;2022-10-16T00:54:40;95740.78;;;10.29;100.00
12626;BME280;6378;42.684;23.372;2022-10-16T00:57:06;95752.03;;;10.31;100.00
12626;BME280;6378;42.684;23.372;2022-10-16T00:59:35;95731.50;;;10.18;100.00
12626;BME280;6378;42.684;23.372;2022-10-16T01:02:02;95758.16;;;10.31;100.00
12626;BME280;6378;42.684;23.372;2022-10-16T01:04:32;95766.59;;;10.30;100.00
12626;BME280;6378;42.684;23.372;2022-10-16T01:10:11;95786.09;;;10.18;100.00
12626;BME280;6378;42.684;23.372;2022-10-16T01:12:46;95779.94;;;10.18;100.00
12626;BME280;6378;42.684;23.372;2022-10-16T01:15:26;95781.81;;;10.17;100.00
12626;BME280;6378;42.684;23.372;2022-10-16T01:18:14;95774.91;;;9.99;100.00
12626;BME280;6378;42.684;23.372;2022-10-16T01:20:46;95770.72;;;9.81;100.00
12626;BME280;6378;42.684;23.372;2022-10-16T01:23:26;95759.66;;;9.74;100.00
12626;BME280;6378;42.684;23.372;2022-10-16T01:26:31;95761.91;;;9.63;100.00
12626;BME280;6378;42.684;23.372;2022-10-16T01:29:09;95776.19;;;9.46;100.00
12626;BME280;6378;42.684;23.372;2022-10-16T01:31:42;95759.47;;;9.41;100.00
12626;BME280;6378;42.684;23.372;2022-10-16T01:34:20;95765.13;;;9.56;100.00
12626;BME280;6378;42.684;23.372;2022-10-16T01:36:53;95765.72;;;9.53;100.00
12626;BME280;6378;42.684;23.372;2022-10-16T01:39:23;95762.59;;;9.51;100.00
12626;BME280;6378;42.684;23.372;2022-10-16T01:41:55;95759.91;;;9.51;100.00
12626;BME280;6378;42.684;23.372;2022-10-16T01:44:26;95758.19;;;9.47;100.00
12626;BME280;6378;42.684;23.372;2022-10-16T01:46:55;95735.13;;;9.29;100.00
12626;BME280;6378;42.684;23.372;2022-10-16T01:49:23;95768.75;;;9.52;100.00
12626;BME280;6378;42.684;23.372;2022-10-16T01:51:53;95767.03;;;9.39;100.00
12626;BME280;6378;42.684;23.372;2022-10-16T01:54:20;95783.94;;;9.39;100.00
12626;BME280;6378;42.684;23.372;2022-10-16T01:56:48;95780.34;;;9.27;100.00
12626;BME280;6378;42.684;23.372;2022-10-16T01:59:19;95783.81;;;9.27;100.00
12626;BME280;6378;42.684;23.372;2022-10-16T02:01:51;95787.31;;;9.28;100.00
12626;BME280;6378;42.684;23.372;2022-10-16T02:04:40;95784.13;;;9.34;100.00
12626;BME280;6378;42.684;23.372;2022-10-16T02:07:08;95783.34;;;9.17;100.00
12626;BME280;6378;42.684;23.372;2022-10-16T02:09:34;95799.16;;;9.27;100.00
12626;BME280;6378;42.684;23.372;2022-10-16T02:12:06;95796.63;;;9.22;100.00
12626;BME280;6378;42.684;23.372;2022-10-16T02:14:34;95799.78;;;9.15;100.00
12626;BME280;6378;42.684;23.372;2022-10-16T02:17:01;95799.78;;;9.15;100.00
12626;BME280;6378;42.684;23.372;2022-10-16T02:19:26;95805.94;;;9.16;100.00
12626;BME280;6378;42.684;23.372;2022-10-16T02:22:00;95800.75;;;9.02;100.00
12626;BME280;6378;42.684;23.372;2022-10-16T02:24:39;95805.00;;;8.86;100.00
12626;BME280;6378;42.684;23.372;2022-10-16T02:27:22;95816.66;;;8.81;100.00
12626;BME280;6378;42.684;23.372;2022-10-16T02:29:55;95809.72;;;8.72;100.00
12626;BME280;6378;42.684;23.372;2022-10-16T02:32:27;95811.44;;;8.67;100.00
12626;BME280;6378;42.684;23.372;2022-10-16T02:34:56;95813.34;;;8.67;100.00
12626;BME280;6378;42.684;23.372;2022-10-16T02:37:23;95801.97;;;8.53;100.00
12626;BME280;6378;42.684;23.372;2022-10-16T02:39:50;95818.06;;;8.61;100.00
12626;BME280;6378;42.684;23.372;2022-10-16T02:42:17;95811.75;;;8.49;100.00
12626;BME280;6378;42.684;23.372;2022-10-16T02:44:42;95810.16;;;8.48;100.00
12626;BME280;6378;42.684;23.372;2022-10-16T02:47:08;95820.38;;;8.46;100.00
12626;BME280;6378;42.684;23.372;2022-10-16T02:49:33;95817.69;;;8.37;100.00
12626;BME280;6378;42.684;23.372;2022-10-16T02:51:59;95824.81;;;8.42;100.00
12626;BME280;6378;42.684;23.372;2022-10-16T02:54:24;95825.91;;;8.41;100.00
12626;BME280;6378;42.684;23.372;2022-10-16T02:56:49;95824.66;;;8.47;100.00
12626;BME280;6378;42.684;23.372;2022-10-16T02:59:15;95836.19;;;8.47;100.00
12626;BME280;6378;42.684;23.372;2022-10-16T03:01:41;95835.06;;;8.40;100.00
12626;BME280;6378;42.684;23.372;2022-10-16T03:04:06;95835.38;;;8.38;100.00
12626;BME280;6378;42.684;23.372;2022-10-16T03:06:31;95827.47;;;8.42;100.00
12626;BME280;6378;42.684;23.372;2022-10-16T03:08:57;95829.22;;;8.46;100.00
12626;BME280;6378;42.684;23.372;2022-10-16T03:11:22;95829.72;;;8.48;100.00
12626;BME280;6378;42.684;23.372;2022-10-16T03:13:48;95832.09;;;8.50;100.00
12626;BME280;6378;42.684;23.372;2022-10-16T03:16:13;95826.75;;;8.50;100.00
12626;BME280;6378;42.684;23.372;2022-10-16T03:18:38;95837.63;;;8.53;100.00
12626;BME280;6378;42.684;23.372;2022-10-16T03:21:04;95837.63;;;8.62;100.00
12626;BME280;6378;42.684;23.372;2022-10-16T03:23:29;95826.91;;;8.62;100.00
12626;BME280;6378;42.684;23.372;2022-10-16T03:25:55;95829.88;;;8.60;100.00
12626;BME280;6378;42.684;23.372;2022-10-16T03:28:20;95809.66;;;8.46;100.00
12626;BME280;6378;42.684;23.372;2022-10-16T03:30:46;95839.22;;;8.63;100.00
12626;BME280;6378;42.684;23.372;2022-10-16T03:33:11;95843.81;;;8.62;100.00
12626;BME280;6378;42.684;23.372;2022-10-16T03:35:37;95754.81;;;8.12;100.00
12626;BME280;6378;42.684;23.372;2022-10-16T03:38:02;95835.44;;;8.64;100.00
12626;BME280;6378;42.684;23.372;2022-10-16T03:40:28;95836.09;;;8.78;100.00
12626;BME280;6378;42.684;23.372;2022-10-16T03:42:53;95837.03;;;8.74;100.00
12626;BME280;6378;42.684;23.372;2022-10-16T03:45:22;95831.63;;;8.65;100.00
12626;BME280;6378;42.684;23.372;2022-10-16T03:47:48;95830.53;;;8.66;100.00
12626;BME280;6378;42.684;23.372;2022-10-16T03:50:13;95841.75;;;8.68;100.00
12626;BME280;6378;42.684;23.372;2022-10-16T03:52:39;95811.75;;;8.49;100.00
12626;BME280;6378;42.684;23.372;2022-10-16T03:55:05;95830.88;;;8.64;100.00
12626;BME280;6378;42.684;23.372;2022-10-16T03:57:30;95806.81;;;8.42;100.00
12626;BME280;6378;42.684;23.372;2022-10-16T03:59:56;95831.78;;;8.51;100.00
12626;BME280;6378;42.684;23.372;2022-10-16T04:02:21;95824.81;;;8.42;100.00
12626;BME280;6378;42.684;23.372;2022-10-16T04:04:47;95829.50;;;8.36;100.00
12626;BME280;6378;42.684;23.372;2022-10-16T04:07:12;95814.44;;;8.09;100.00
12626;BME280;6378;42.684;23.372;2022-10-16T04:09:37;95827.22;;;8.21;100.00
12626;BME280;6378;42.684;23.372;2022-10-16T04:12:03;95813.47;;;8.05;100.00
12626;BME280;6378;42.684;23.372;2022-10-16T04:14:28;95837.19;;;8.20;100.00
12626;BME280;6378;42.684;23.372;2022-10-16T04:16:54;95835.34;;;8.30;100.00
12626;BME280;6378;42.684;23.372;2022-10-16T04:19:19;95840.72;;;8.30;100.00
12626;BME280;6378;42.684;23.372;2022-10-16T04:21:44;95842.38;;;8.17;100.00
12626;BME280;6378;42.684;23.372;2022-10-16T04:24:10;95847.28;;;8.23;100.00
12626;BME280;6378;42.684;23.372;2022-10-16T04:26:36;95841.75;;;8.20;100.00
12626;BME280;6378;42.684;23.372;2022-10-16T04:29:02;95837.91;;;8.04;100.00
12626;BME280;6378;42.684;23.372;2022-10-16T04:31:27;95840.28;;;8.05;100.00
12626;BME280;6378;42.684;23.372;2022-10-16T04:33:53;95831.69;;;7.86;100.00
12626;BME280;6378;42.684;23.372;2022-10-16T04:36:18;95848.91;;;8.02;100.00
12626;BME280;6378;42.684;23.372;2022-10-16T04:38:43;95853.81;;;8.00;100.00
12626;BME280;6378;42.684;23.372;2022-10-16T04:41:09;95849.88;;;8.06;100.00
12626;BME280;6378;42.684;23.372;2022-10-16T04:43:34;95863.75;;;8.31;100.00
12626;BME280;6378;42.684;23.372;2022-10-16T04:46:00;95871.06;;;8.16;100.00
12626;BME280;6378;42.684;23.372;2022-10-16T04:48:25;95862.25;;;8.16;100.00
12626;BME280;6378;42.684;23.372;2022-10-16T04:50:51;95866.31;;;8.13;100.00
12626;BME280;6378;42.684;23.372;2022-10-16T04:53:17;95866.81;;;8.15;100.00
12626;BME280;6378;42.684;23.372;2022-10-16T04:55:42;95873.22;;;8.37;100.00
12626;BME280;6378;42.684;23.372;2022-10-16T04:58:08;95870.50;;;8.67;100.00
12626;BME280;6378;42.684;23.372;2022-10-16T05:00:34;95872.09;;;8.77;100.00
12626;BME280;6378;42.684;23.372;2022-10-16T05:03:00;95855.69;;;9.04;100.00
12626;BME280;6378;42.684;23.372;2022-10-16T05:05:27;95880.50;;;9.62;100.00
12626;BME280;6378;42.684;23.372;2022-10-16T05:07:53;95898.13;;;10.14;100.00
12626;BME280;6378;42.684;23.372;2022-10-16T05:10:18;95884.88;;;10.47;100.00
12626;BME280;6378;42.684;23.372;2022-10-16T05:12:44;95898.13;;;10.90;100.00
12626;BME280;6378;42.684;23.372;2022-10-16T05:15:10;95881.09;;;11.27;100.00
12626;BME280;6378;42.684;23.372;2022-10-16T05:17:35;95873.13;;;11.52;100.00
12626;BME280;6378;42.684;23.372;2022-10-16T05:20:01;95881.59;;;11.83;100.00
12626;BME280;6378;42.684;23.372;2022-10-16T05:22:26;95876.19;;;12.16;100.00
12626;BME280;6378;42.684;23.372;2022-10-16T05:24:52;95863.38;;;12.37;100.00
12626;BME280;6378;42.684;23.372;2022-10-16T05:27:17;95877.59;;;12.71;100.00
12626;BME280;6378;42.684;23.372;2022-10-16T05:29:46;95865.63;;;12.96;100.00
12626;BME280;6378;42.684;23.372;2022-10-16T05:32:14;95871.03;;;13.32;100.00
12626;BME280;6378;42.684;23.372;2022-10-16T05:34:39;95867.91;;;13.58;100.00
12626;BME280;6378;42.684;23.372;2022-10-16T05:37:05;95868.50;;;13.52;100.00
12626;BME280;6378;42.684;23.372;2022-10-16T05:39:30;95861.22;;;13.68;100.00
12626;BME280;6378;42.684;23.372;2022-10-16T05:41:56;95873.41;;;13.89;100.00
12626;BME280;6378;42.684;23.372;2022-10-16T05:44:21;95875.09;;;14.10;100.00
12626;BME280;6378;42.684;23.372;2022-10-16T05:46:47;95877.47;;;14.11;100.00
12626;BME280;6378;42.684;23.372;2022-10-16T05:49:12;95865.81;;;14.39;98.01
12626;BME280;6378;42.684;23.372;2022-10-16T05:51:38;95879.97;;;14.79;94.93
12626;BME280;6378;42.684;23.372;2022-10-16T05:54:03;95878.31;;;14.74;93.65
12626;BME280;6378;42.684;23.372;2022-10-16T05:56:28;95879.88;;;14.91;93.07
12626;BME280;6378;42.684;23.372;2022-10-16T05:58:54;95824.44;;;14.89;87.01
12626;BME280;6378;42.684;23.372;2022-10-16T06:01:20;95868.56;;;15.40;83.46
12626;BME280;6378;42.684;23.372;2022-10-16T06:03:50;95903.59;;;15.64;81.73
12626;BME280;6378;42.684;23.372;2022-10-16T06:06:21;95900.75;;;15.95;80.40
12626;BME280;6378;42.684;23.372;2022-10-16T06:08:48;95912.41;;;15.96;78.89
12626;BME280;6378;42.684;23.372;2022-10-16T06:11:17;95906.03;;;16.08;77.07
12626;BME280;6378;42.684;23.372;2022-10-16T06:13:42;95905.94;;;16.23;74.33
12626;BME280;6378;42.684;23.372;2022-10-16T06:16:09;95914.00;;;16.39;72.36
12626;BME280;6378;42.684;23.372;2022-10-16T06:18:36;95907.31;;;16.14;72.54
12626;BME280;6378;42.684;23.372;2022-10-16T06:21:14;95921.13;;;16.47;72.09
12626;BME280;6378;42.684;23.372;2022-10-16T06:23:41;95900.91;;;16.44;70.02
12626;BME280;6378;42.684;23.372;2022-10-16T06:26:09;95924.75;;;16.32;72.14
12626;BME280;6378;42.684;23.372;2022-10-16T06:28:35;95928.88;;;16.26;73.84
12626;BME280;6378;42.684;23.372;2022-10-16T06:31:02;95907.81;;;16.00;71.85
12626;BME280;6378;42.684;23.372;2022-10-16T06:33:28;95930.84;;;16.48;71.24
12626;BME280;6378;42.684;23.372;2022-10-16T06:36:02;95925.63;;;16.81;68.56
12626;BME280;6378;42.684;23.372;2022-10-16T06:38:29;95918.97;;;16.56;69.06
12626;BME280;6378;42.684;23.372;2022-10-16T06:40:54;95944.56;;;16.74;68.15
12626;BME280;6378;42.684;23.372;2022-10-16T06:43:20;95933.69;;;16.55;71.38
12626;BME280;6378;42.684;23.372;2022-10-16T06:45:58;95938.34;;;16.55;69.95
12626;BME280;6378;42.684;23.372;2022-10-16T06:48:25;95939.72;;;16.64;68.38
12626;BME280;6378;42.684;23.372;2022-10-16T06:53:26;95954.25;;;16.33;70.77
12626;BME280;6378;42.684;23.372;2022-10-16T06:55:52;95933.56;;;16.06;72.83
12626;BME280;6378;42.684;23.372;2022-10-16T06:58:18;95951.19;;;16.35;71.60
12626;BME280;6378;42.684;23.372;2022-10-16T07:00:43;95955.56;;;16.20;71.57
12626;BME280;6378;42.684;23.372;2022-10-16T07:03:09;95932.75;;;15.86;74.25
12626;BME280;6378;42.684;23.372;2022-10-16T07:05:38;95939.78;;;16.07;74.86
12626;BME280;6378;42.684;23.372;2022-10-16T07:08:04;95972.19;;;16.38;72.44
12626;BME280;6378;42.684;23.372;2022-10-16T07:10:31;95965.63;;;16.39;71.63
12626;BME280;6378;42.684;23.372;2022-10-16T07:12:56;95955.00;;;16.11;71.67
12626;BME280;6378;42.684;23.372;2022-10-16T07:15:22;95967.75;;;15.72;74.26
12626;BME280;6378;42.684;23.372;2022-10-16T07:17:47;95940.53;;;15.69;77.30
12626;BME280;6378;42.684;23.372;2022-10-16T07:20:12;95963.94;;;15.92;78.16
12626;BME280;6378;42.684;23.372;2022-10-16T07:22:38;95972.53;;;15.79;78.22
12626;BME280;6378;42.684;23.372;2022-10-16T07:25:04;95964.47;;;15.47;79.95
12626;BME280;6378;42.684;23.372;2022-10-16T07:27:29;95964.19;;;15.68;82.26
12626;BME280;6378;42.684;23.372;2022-10-16T07:29:55;95972.19;;;15.80;78.63
12626;BME280;6378;42.684;23.372;2022-10-16T07:32:20;95965.91;;;15.95;79.47
12626;BME280;6378;42.684;23.372;2022-10-16T07:34:45;95941.75;;;15.90;78.66
12626;BME280;6378;42.684;23.372;2022-10-16T07:37:11;95964.22;;;16.07;76.56
12626;BME280;6378;42.684;23.372;2022-10-16T07:39:36;95966.72;;;15.96;78.86
12626;BME280;6378;42.684;23.372;2022-10-16T07:42:02;95970.00;;;16.05;76.23
12626;BME280;6378;42.684;23.372;2022-10-16T07:44:27;95974.34;;;15.90;77.35
12626;BME280;6378;42.684;23.372;2022-10-16T07:47:05;95969.53;;;15.84;78.71
12626;BME280;6378;42.684;23.372;2022-10-16T07:49:31;95974.66;;;15.70;81.19
12626;BME280;6378;42.684;23.372;2022-10-16T07:52:11;95964.84;;;15.30;83.75
12626;BME280;6378;42.684;23.372;2022-10-16T07:57:48;95974.09;;;15.45;85.52
12626;BME280;6378;42.684;23.372;2022-10-16T08:00:38;95977.91;;;15.94;83.16
12626;BME280;6378;42.684;23.372;2022-10-16T08:23:09;95969.25;;;16.27;80.41
12626;BME280;6378;42.684;23.372;2022-10-16T08:26:10;95987.13;;;16.47;79.27
12626;BME280;6378;42.684;23.372;2022-10-16T08:32:28;95961.50;;;16.07;78.70
12626;BME280;6378;42.684;23.372;2022-10-16T08:38:28;95960.38;;;16.50;77.25
12626;BME280;6378;42.684;23.372;2022-10-16T08:41:01;95960.38;;;16.69;72.85
12626;BME280;6378;42.684;23.372;2022-10-16T08:49:18;95964.78;;;16.58;67.18
12626;BME280;6378;42.684;23.372;2022-10-16T08:51:44;95954.94;;;16.50;65.31
12626;BME280;6378;42.684;23.372;2022-10-16T08:56:54;95985.16;;;16.86;64.04
12626;BME280;6378;42.684;23.372;2022-10-16T08:59:20;95977.97;;;16.98;61.13
12626;BME280;6378;42.684;23.372;2022-10-16T09:01:49;95967.44;;;17.19;60.77
12626;BME280;6378;42.684;23.372;2022-10-16T09:22:44;95971.53;;;17.32;59.18
12626;BME280;6378;42.684;23.372;2022-10-16T09:25:18;95955.56;;;17.30;58.43
12626;BME280;6378;42.684;23.372;2022-10-16T09:27:47;95967.13;;;17.24;56.23
12626;BME280;6378;42.684;23.372;2022-10-16T09:30:18;95955.72;;;17.64;57.59
12626;BME280;6378;42.684;23.372;2022-10-16T09:32:46;95962.66;;;17.61;55.31
12626;BME280;6378;42.684;23.372;2022-10-16T09:35:16;95923.44;;;17.13;55.82
12626;BME280;6378;42.684;23.372;2022-10-16T09:37:44;95960.06;;;17.68;55.15
12626;BME280;6378;42.684;23.372;2022-10-16T09:43:26;95960.53;;;17.51;55.02
12626;BME280;6378;42.684;23.372;2022-10-16T09:46:07;95927.72;;;17.14;55.59
12626;BME280;6378;42.684;23.372;2022-10-16T09:48:44;95939.50;;;17.48;53.31
12626;BME280;6378;42.684;23.372;2022-10-16T09:54:00;95942.97;;;18.01;54.56
12626;BME280;6378;42.684;23.372;2022-10-16T09:56:33;95946.28;;;18.17;53.13
12626;BME280;6378;42.684;23.372;2022-10-16T09:59:08;95940.28;;;18.05;52.67
12626;BME280;6378;42.684;23.372;2022-10-16T10:04:07;95942.06;;;18.24;52.38
12626;BME280;6378;42.684;23.372;2022-10-16T10:06:35;95834.97;;;17.83;52.53
12626;BME280;6378;42.684;23.372;2022-10-16T10:09:18;95926.53;;;17.94;48.79
12626;BME280;6378;42.684;23.372;2022-10-16T10:11:45;95930.34;;;18.19;49.65
12626;BME280;6378;42.684;23.372;2022-10-16T10:14:18;95925.47;;;18.02;49.68
12626;BME280;6378;42.684;23.372;2022-10-16T10:16:45;95927.97;;;18.18;50.17
12626;BME280;6378;42.684;23.372;2022-10-16T10:19:19;95932.41;;;18.30;51.48
12626;BME280;6378;42.684;23.372;2022-10-16T10:21:46;95936.66;;;18.27;50.30
12626;BME280;6378;42.684;23.372;2022-10-16T10:24:15;95915.25;;;18.29;50.99
12626;BME280;6378;42.684;23.372;2022-10-16T10:26:54;95925.03;;;18.67;51.53
12626;BME280;6378;42.684;23.372;2022-10-16T10:32:07;95921.13;;;18.68;49.84
12626;BME280;6378;42.684;23.372;2022-10-16T10:37:24;95910.34;;;18.82;48.50
12626;BME280;6378;42.684;23.372;2022-10-16T10:46:35;95902.44;;;18.33;48.93
12626;BME280;6378;42.684;23.372;2022-10-16T10:58:42;95896.09;;;18.55;49.23
12626;BME280;6378;42.684;23.372;2022-10-16T11:01:54;95905.22;;;18.37;48.88
12626;BME280;6378;42.684;23.372;2022-10-16T11:07:34;95882.75;;;18.47;48.20
12626;BME280;6378;42.684;23.372;2022-10-16T11:10:05;95873.78;;;18.46;47.84
12626;BME280;6378;42.684;23.372;2022-10-16T11:12:46;95864.47;;;18.51;48.63
12626;BME280;6378;42.684;23.372;2022-10-16T11:18:52;95879.41;;;18.60;48.79
12626;BME280;6378;42.684;23.372;2022-10-16T11:21:21;95872.03;;;18.65;46.44
12626;BME280;6378;42.684;23.372;2022-10-16T11:26:28;95859.25;;;18.35;46.77
12626;BME280;6378;42.684;23.372;2022-10-16T11:28:59;95872.94;;;18.83;46.86
12626;BME280;6378;42.684;23.372;2022-10-16T11:31:44;95869.00;;;18.77;47.19
12626;BME280;6378;42.684;23.372;2022-10-16T11:34:38;95872.22;;;18.86;47.37
12626;BME280;6378;42.684;23.372;2022-10-16T11:37:14;95858.53;;;18.82;47.67
12626;BME280;6378;42.684;23.372;2022-10-16T11:39:43;95868.63;;;18.78;48.17
12626;BME280;6378;42.684;23.372;2022-10-16T11:42:22;95881.44;;;18.71;46.29
12626;BME280;6378;42.684;23.372;2022-10-16T11:50:13;95879.84;;;18.70;45.20
12626;BME280;6378;42.684;23.372;2022-10-16T11:52:53;95871.94;;;18.54;46.51
12626;BME280;6378;42.684;23.372;2022-10-16T11:55:24;95877.41;;;18.57;46.72
12626;BME280;6378;42.684;23.372;2022-10-16T11:58:05;95853.28;;;18.59;45.85
12626;BME280;6378;42.684;23.372;2022-10-16T12:00:40;95880.81;;;18.91;45.89
12626;BME280;6378;42.684;23.372;2022-10-16T12:03:17;95866.66;;;18.75;44.72
12626;BME280;6378;42.684;23.372;2022-10-16T12:08:48;95869.84;;;18.84;44.15
12626;BME280;6378;42.684;23.372;2022-10-16T12:13:52;95877.25;;;18.84;44.40
12626;BME280;6378;42.684;23.372;2022-10-16T12:16:38;95874.59;;;18.91;45.10
12626;BME280;6378;42.684;23.372;2022-10-16T12:19:18;95857.78;;;18.85;44.62
12626;BME280;6378;42.684;23.372;2022-10-16T12:21:45;95878.97;;;19.06;44.15
12626;BME280;6378;42.684;23.372;2022-10-16T12:26:51;95869.44;;;19.40;44.62
12626;BME280;6378;42.684;23.372;2022-10-16T12:29:39;95868.81;;;19.58;45.23
12626;BME280;6378;42.684;23.372;2022-10-16T12:32:31;95872.53;;;19.35;44.92
12626;BME280;6378;42.684;23.372;2022-10-16T12:34:59;95867.84;;;19.32;44.72
12626;BME280;6378;42.684;23.372;2022-10-16T12:37:32;95874.16;;;19.43;43.95
12626;BME280;6378;42.684;23.372;2022-10-16T12:39:59;95869.44;;;19.37;44.02
12626;BME280;6378;42.684;23.372;2022-10-16T12:42:35;95870.13;;;19.23;44.51
12626;BME280;6378;42.684;23.372;2022-10-16T12:45:02;95867.84;;;19.29;44.08
12626;BME280;6378;42.684;23.372;2022-10-16T12:47:48;95874.88;;;19.30;44.49
12626;BME280;6378;42.684;23.372;2022-10-16T12:50:34;95867.03;;;19.28;44.45
12626;BME280;6378;42.684;23.372;2022-10-16T12:53:01;95875.69;;;19.41;44.45
12626;BME280;6378;42.684;23.372;2022-10-16T12:55:34;95866.19;;;19.21;45.16
12626;BME280;6378;42.684;23.372;2022-10-16T12:58:12;95861.22;;;19.30;44.45
12626;BME280;6378;42.684;23.372;2022-10-16T13:06:39;95880.47;;;19.51;43.41
12626;BME280;6378;42.684;23.372;2022-10-16T13:12:23;95879.06;;;19.82;42.39
12626;BME280;6378;42.684;23.372;2022-10-16T13:15:17;95879.72;;;19.58;41.99
12626;BME280;6378;42.684;23.372;2022-10-16T13:18:10;95874.97;;;19.44;42.69
12626;BME280;6378;42.684;23.372;2022-10-16T13:23:37;95873.91;;;19.70;42.87
12626;BME280;6378;42.684;23.372;2022-10-16T13:26:35;95879.38;;;19.63;42.34
12626;BME280;6378;42.684;23.372;2022-10-16T13:29:05;95879.69;;;19.51;42.75
12626;BME280;6378;42.684;23.372;2022-10-16T13:31:31;95875.78;;;19.48;43.50
12626;BME280;6378;42.684;23.372;2022-10-16T13:33:58;95879.38;;;19.63;42.62
12626;BME280;6378;42.684;23.372;2022-10-16T13:36:49;95884.03;;;19.62;41.52
12626;BME280;6378;42.684;23.372;2022-10-16T13:42:12;95892.31;;;19.80;41.38
12626;BME280;6378;42.684;23.372;2022-10-16T13:44:47;95874.63;;;19.56;41.45
12626;BME280;6378;42.684;23.372;2022-10-16T13:47:22;95893.00;;;19.59;41.44
12626;BME280;6378;42.684;23.372;2022-10-16T13:50:12;95884.81;;;19.63;41.73
12626;BME280;6378;42.684;23.372;2022-10-16T13:52:38;95882.56;;;19.79;41.98
12626;BME280;6378;42.684;23.372;2022-10-16T13:55:14;95889.56;;;19.69;42.58
12626;BME280;6378;42.684;23.372;2022-10-16T13:57:41;95890.66;;;19.61;42.01
12626;BME280;6378;42.684;23.372;2022-10-16T14:03:00;95890.22;;;19.49;41.09
12626;BME280;6378;42.684;23.372;2022-10-16T14:05:26;95891.63;;;19.28;40.60
12626;BME280;6378;42.684;23.372;2022-10-16T14:07:53;95899.47;;;19.40;40.75
12626;BME280;6378;42.684;23.372;2022-10-16T14:10:28;95894.38;;;19.35;40.54
12626;BME280;6378;42.684;23.372;2022-10-16T14:13:05;95895.84;;;19.22;40.65
12626;BME280;6378;42.684;23.372;2022-10-16T14:15:33;95905.44;;;19.02;40.67
12626;BME280;6378;42.684;23.372;2022-10-16T14:18:00;95873.97;;;18.68;40.65
12626;BME280;6378;42.684;23.372;2022-10-16T14:20:31;95904.19;;;18.92;41.32
12626;BME280;6378;42.684;23.372;2022-10-16T14:23:02;95906.50;;;18.87;40.47
12626;BME280;6378;42.684;23.372;2022-10-16T14:25:31;95908.81;;;18.81;40.73
12626;BME280;6378;42.684;23.372;2022-10-16T14:30:25;95912.50;;;18.63;40.52
12626;BME280;6378;42.684;23.372;2022-10-16T14:32:56;95918.59;;;18.49;40.90
12626;BME280;6378;42.684;23.372;2022-10-16T14:35:39;95923.19;;;18.41;41.24
12626;BME280;6378;42.684;23.372;2022-10-16T14:38:06;95915.25;;;18.29;41.47
12626;BME280;6378;42.684;23.372;2022-10-16T14:40:47;95894.84;;;18.12;41.83
12626;BME280;6378;42.684;23.372;2022-10-16T14:43:28;95917.94;;;18.26;42.40
12626;BME280;6378;42.684;23.372;2022-10-16T14:45:56;95922.81;;;18.09;42.53
12626;BME280;6378;42.684;23.372;2022-10-16T14:48:23;95921.88;;;17.95;42.47
12626;BME280;6378;42.684;23.372;2022-10-16T14:50:49;95918.25;;;17.84;42.92
12626;BME280;6378;42.684;23.372;2022-10-16T14:53:15;95919.41;;;17.56;43.22
12626;BME280;6378;42.684;23.372;2022-10-16T14:55:42;95923.44;;;17.40;43.81
12626;BME280;6378;42.684;23.372;2022-10-16T14:58:19;95938.00;;;17.24;43.85
12626;BME280;6378;42.684;23.372;2022-10-16T15:00:46;95926.50;;;17.12;44.43
12626;BME280;6378;42.684;23.372;2022-10-16T15:03:12;95934.50;;;17.01;44.80
12626;BME280;6378;42.684;23.372;2022-10-16T15:05:38;95912.91;;;16.85;45.11
12626;BME280;6378;42.684;23.372;2022-10-16T15:08:03;95943.75;;;16.97;45.63
12626;BME280;6378;42.684;23.372;2022-10-16T15:10:31;95941.63;;;16.86;46.05
12626;BME280;6378;42.684;23.372;2022-10-16T15:12:58;95903.44;;;16.57;46.63
12626;BME280;6378;42.684;23.372;2022-10-16T15:17:53;95939.22;;;16.59;47.99
12626;BME280;6378;42.684;23.372;2022-10-16T15:20:22;95930.34;;;16.42;48.84
12626;BME280;6378;42.684;23.372;2022-10-16T15:22:47;95942.44;;;16.45;48.49
12626;BME280;6378;42.684;23.372;2022-10-16T15:27:50;95939.81;;;16.29;49.10
12626;BME280;6378;42.684;23.372;2022-10-16T15:30:16;95942.03;;;16.24;49.57
12626;BME280;6378;42.684;23.372;2022-10-16T15:32:41;95948.91;;;16.18;49.91
12626;BME280;6378;42.684;23.372;2022-10-16T15:35:09;95936.50;;;15.97;50.31
12626;BME280;6378;42.684;23.372;2022-10-16T15:37:35;95964.50;;;16.01;50.31